sensor_id;sensor_type;location;lat;lon;timestamp;P1;durP1;ratioP1;P2;durP2;ratioP2
65230;SDS011;51813;40.666;16.602;2023-03-15T00:00:28;4.03;;;1.23;;
65230;SDS011;51813;40.666;16.602;2023-03-15T00:02:54;3.50;;;1.20;;
65230;SDS011;51813;40.666;16.602;2023-03-15T00:05:20;3.22;;;1.52;;
65230;SDS011;51813;40.666;16.602;2023-03-15T00:07:45;2.55;;;1.25;;
65230;SDS011;51813;40.666;16.602;2023-03-15T00:10:11;2.75;;;1.30;;
65230;SDS011;51813;40.666;16.602;2023-03-15T00:12:37;2.90;;;1.40;;
65230;SDS011;51813;40.666;16.602;2023-03-15T00:15:03;4.40;;;1.50;;
65230;SDS011;51813;40.666;16.602;2023-03-15T00:17:29;2.05;;;1.13;;
65230;SDS011;51813;40.666;16.602;2023-03-15T00:19:58;2.67;;;1.48;;
65230;SDS011;51813;40.666;16.602;2023-03-15T00:22:24;4.50;;;2.38;;
65230;SDS011;51813;40.666;16.602;2023-03-15T00:24:50;3.03;;;1.30;;
65230;SDS011;51813;40.666;16.602;2023-03-15T00:27:16;2.75;;;1.20;;
65230;SDS011;51813;40.666;16.602;2023-03-15T00:29:42;4.25;;;1.55;;
65230;SDS011;51813;40.666;16.602;2023-03-15T00:32:07;2.60;;;1.20;;
65230;SDS011;51813;40.666;16.602;2023-03-15T00:34:33;3.15;;;1.30;;
65230;SDS011;51813;40.666;16.602;2023-03-15T00:36:59;2.78;;;1.67;;
65230;SDS011;51813;40.666;16.602;2023-03-15T00:39:24;4.80;;;1.63;;
65230;SDS011;51813;40.666;16.602;2023-03-15T00:41:50;2.58;;;1.10;;
65230;SDS011;51813;40.666;16.602;2023-03-15T00:44:20;2.65;;;1.00;;
65230;SDS011;51813;40.666;16.602;2023-03-15T00:46:50;2.55;;;0.95;;
65230;SDS011;51813;40.666;16.602;2023-03-15T00:49:16;4.20;;;1.38;;
65230;SDS011;51813;40.666;16.602;2023-03-15T00:51:42;5.50;;;1.20;;
65230;SDS011;51813;40.666;16.602;2023-03-15T00:54:07;1.80;;;0.90;;
65230;SDS011;51813;40.666;16.602;2023-03-15T00:56:34;4.60;;;1.30;;
65230;SDS011;51813;40.666;16.602;2023-03-15T00:59:00;3.75;;;1.20;;
65230;SDS011;51813;40.666;16.602;2023-03-15T01:01:27;3.75;;;1.20;;
65230;SDS011;51813;40.666;16.602;2023-03-15T01:03:54;3.40;;;1.63;;
65230;SDS011;51813;40.666;16.602;2023-03-15T01:06:22;3.53;;;1.17;;
65230;SDS011;51813;40.666;16.602;2023-03-15T01:08:49;3.72;;;1.23;;
65230;SDS011;51813;40.666;16.602;2023-03-15T01:11:25;2.53;;;1.10;;
65230;SDS011;51813;40.666;16.602;2023-03-15T01:13:52;2.20;;;1.00;;
65230;SDS011;51813;40.666;16.602;2023-03-15T01:16:19;2.70;;;0.85;;
65230;SDS011;51813;40.666;16.602;2023-03-15T01:18:46;2.58;;;1.08;;
65230;SDS011;51813;40.666;16.602;2023-03-15T01:21:12;2.28;;;1.00;;
65230;SDS011;51813;40.666;16.602;2023-03-15T01:23:39;2.30;;;0.90;;
65230;SDS011;51813;40.666;16.602;2023-03-15T01:26:06;2.90;;;1.10;;
65230;SDS011;51813;40.666;16.602;2023-03-15T01:28:35;3.97;;;1.10;;
65230;SDS011;51813;40.666;16.602;2023-03-15T01:31:01;3.22;;;1.00;;
65230;SDS011;51813;40.666;16.602;2023-03-15T01:33:27;2.92;;;1.00;;
65230;SDS011;51813;40.666;16.602;2023-03-15T01:36:00;3.63;;;1.10;;
65230;SDS011;51813;40.666;16.602;2023-03-15T01:38:28;3.20;;;0.90;;
65230;SDS011;51813;40.666;16.602;2023-03-15T01:40:54;3.17;;;1.02;;
65230;SDS011;51813;40.666;16.602;2023-03-15T01:43:21;3.08;;;1.10;;
65230;SDS011;51813;40.666;16.602;2023-03-15T01:48:26;2.63;;;0.90;;
65230;SDS011;51813;40.666;16.602;2023-03-15T01:50:56;3.58;;;1.35;;
65230;SDS011;51813;40.666;16.602;2023-03-15T01:53:24;4.93;;;1.20;;
65230;SDS011;51813;40.666;16.602;2023-03-15T01:55:53;1.95;;;0.80;;
65230;SDS011;51813;40.666;16.602;2023-03-15T01:58:20;3.78;;;0.90;;
65230;SDS011;51813;40.666;16.602;2023-03-15T02:00:48;3.75;;;1.00;;
65230;SDS011;51813;40.666;16.602;2023-03-15T02:03:27;3.13;;;0.90;;
65230;SDS011;51813;40.666;16.602;2023-03-15T02:06:03;2.47;;;1.00;;
65230;SDS011;51813;40.666;16.602;2023-03-15T02:08:33;2.85;;;1.30;;
65230;SDS011;51813;40.666;16.602;2023-03-15T02:11:03;3.15;;;0.80;;
65230;SDS011;51813;40.666;16.602;2023-03-15T02:13:30;5.57;;;1.15;;
65230;SDS011;51813;40.666;16.602;2023-03-15T02:15:58;2.70;;;0.88;;
65230;SDS011;51813;40.666;16.602;2023-03-15T02:18:24;2.28;;;0.70;;
65230;SDS011;51813;40.666;16.602;2023-03-15T02:20:53;3.80;;;1.00;;
65230;SDS011;51813;40.666;16.602;2023-03-15T02:23:28;2.15;;;0.75;;
65230;SDS011;51813;40.666;16.602;2023-03-15T02:28:57;2.85;;;0.80;;
65230;SDS011;51813;40.666;16.602;2023-03-15T02:31:23;1.83;;;0.70;;
65230;SDS011;51813;40.666;16.602;2023-03-15T02:33:50;2.05;;;0.70;;
65230;SDS011;51813;40.666;16.602;2023-03-15T02:36:24;3.28;;;0.80;;
65230;SDS011;51813;40.666;16.602;2023-03-15T02:38:52;3.45;;;0.88;;
65230;SDS011;51813;40.666;16.602;2023-03-15T02:41:23;2.88;;;0.80;;
65230;SDS011;51813;40.666;16.602;2023-03-15T02:43:51;4.10;;;0.90;;
65230;SDS011;51813;40.666;16.602;2023-03-15T02:46:21;2.33;;;0.63;;
65230;SDS011;51813;40.666;16.602;2023-03-15T02:48:47;1.98;;;0.77;;
65230;SDS011;51813;40.666;16.602;2023-03-15T02:51:22;2.97;;;0.57;;
65230;SDS011;51813;40.666;16.602;2023-03-15T02:53:48;3.10;;;0.70;;
65230;SDS011;51813;40.666;16.602;2023-03-15T02:56:14;1.77;;;0.70;;
65230;SDS011;51813;40.666;16.602;2023-03-15T02:58:41;2.00;;;0.60;;
65230;SDS011;51813;40.666;16.602;2023-03-15T03:01:09;2.25;;;1.00;;
65230;SDS011;51813;40.666;16.602;2023-03-15T03:03:43;3.40;;;0.90;;
65230;SDS011;51813;40.666;16.602;2023-03-15T03:06:11;2.80;;;0.80;;
65230;SDS011;51813;40.666;16.602;2023-03-15T03:08:37;2.03;;;0.60;;
65230;SDS011;51813;40.666;16.602;2023-03-15T03:11:03;3.25;;;0.70;;
65230;SDS011;51813;40.666;16.602;2023-03-15T03:13:30;2.72;;;0.70;;
65230;SDS011;51813;40.666;16.602;2023-03-15T03:15:56;2.65;;;0.82;;
65230;SDS011;51813;40.666;16.602;2023-03-15T03:18:25;1.38;;;0.77;;
65230;SDS011;51813;40.666;16.602;2023-03-15T03:20:56;2.53;;;0.60;;
65230;SDS011;51813;40.666;16.602;2023-03-15T03:23:23;2.22;;;0.70;;
65230;SDS011;51813;40.666;16.602;2023-03-15T03:25:54;2.78;;;0.68;;
65230;SDS011;51813;40.666;16.602;2023-03-15T03:28:24;2.33;;;0.60;;
65230;SDS011;51813;40.666;16.602;2023-03-15T03:30:53;2.28;;;0.63;;
65230;SDS011;51813;40.666;16.602;2023-03-15T03:33:20;2.78;;;0.93;;
65230;SDS011;51813;40.666;16.602;2023-03-15T03:35:46;1.83;;;0.80;;
65230;SDS011;51813;40.666;16.602;2023-03-15T03:38:13;3.38;;;1.10;;
65230;SDS011;51813;40.666;16.602;2023-03-15T03:40:39;1.80;;;0.60;;
65230;SDS011;51813;40.666;16.602;2023-03-15T03:43:05;3.55;;;0.90;;
65230;SDS011;51813;40.666;16.602;2023-03-15T03:45:32;1.70;;;0.80;;
65230;SDS011;51813;40.666;16.602;2023-03-15T03:47:57;3.03;;;0.65;;
65230;SDS011;51813;40.666;16.602;2023-03-15T03:50:24;2.70;;;0.70;;
65230;SDS011;51813;40.666;16.602;2023-03-15T03:52:50;2.88;;;0.80;;
65230;SDS011;51813;40.666;16.602;2023-03-15T03:55:15;2.97;;;0.70;;
65230;SDS011;51813;40.666;16.602;2023-03-15T03:57:41;3.58;;;0.70;;
65230;SDS011;51813;40.666;16.602;2023-03-15T04:00:09;2.95;;;0.82;;
65230;SDS011;51813;40.666;16.602;2023-03-15T04:02:38;2.33;;;0.63;;
65230;SDS011;51813;40.666;16.602;2023-03-15T04:05:06;1.98;;;0.60;;
65230;SDS011;51813;40.666;16.602;2023-03-15T04:07:33;2.30;;;0.73;;
65230;SDS011;51813;40.666;16.602;2023-03-15T04:09:59;2.95;;;0.60;;
65230;SDS011;51813;40.666;16.602;2023-03-15T04:12:26;2.92;;;1.55;;
65230;SDS011;51813;40.666;16.602;2023-03-15T04:14:52;1.98;;;0.80;;
65230;SDS011;51813;40.666;16.602;2023-03-15T04:17:18;2.00;;;0.52;;
65230;SDS011;51813;40.666;16.602;2023-03-15T04:19:43;3.55;;;0.80;;
65230;SDS011;51813;40.666;16.602;2023-03-15T04:22:12;3.53;;;0.70;;
65230;SDS011;51813;40.666;16.602;2023-03-15T04:24:42;3.38;;;0.82;;
65230;SDS011;51813;40.666;16.602;2023-03-15T04:27:07;5.45;;;1.20;;
65230;SDS011;51813;40.666;16.602;2023-03-15T04:29:33;2.42;;;0.80;;
65230;SDS011;51813;40.666;16.602;2023-03-15T04:31:59;2.58;;;0.75;;
65230;SDS011;51813;40.666;16.602;2023-03-15T04:34:26;2.35;;;0.70;;
65230;SDS011;51813;40.666;16.602;2023-03-15T04:36:53;3.92;;;0.80;;
65230;SDS011;51813;40.666;16.602;2023-03-15T04:39:19;2.30;;;1.05;;
65230;SDS011;51813;40.666;16.602;2023-03-15T04:41:45;2.63;;;1.23;;
65230;SDS011;51813;40.666;16.602;2023-03-15T04:44:11;2.75;;;0.65;;
65230;SDS011;51813;40.666;16.602;2023-03-15T04:46:40;2.25;;;0.77;;
65230;SDS011;51813;40.666;16.602;2023-03-15T04:49:06;3.40;;;0.80;;
65230;SDS011;51813;40.666;16.602;2023-03-15T04:51:32;3.45;;;0.90;;
65230;SDS011;51813;40.666;16.602;2023-03-15T04:53:59;3.58;;;0.88;;
65230;SDS011;51813;40.666;16.602;2023-03-15T04:56:25;3.53;;;0.90;;
65230;SDS011;51813;40.666;16.602;2023-03-15T04:58:51;3.53;;;0.70;;
65230;SDS011;51813;40.666;16.602;2023-03-15T05:01:16;4.68;;;0.90;;
65230;SDS011;51813;40.666;16.602;2023-03-15T05:03:42;4.25;;;1.00;;
65230;SDS011;51813;40.666;16.602;2023-03-15T05:06:08;2.55;;;0.60;;
65230;SDS011;51813;40.666;16.602;2023-03-15T05:08:34;3.75;;;0.70;;
65230;SDS011;51813;40.666;16.602;2023-03-15T05:11:01;3.13;;;0.73;;
65230;SDS011;51813;40.666;16.602;2023-03-15T05:13:27;3.53;;;0.60;;
65230;SDS011;51813;40.666;16.602;2023-03-15T05:15:53;3.05;;;0.90;;
65230;SDS011;51813;40.666;16.602;2023-03-15T05:18:19;3.53;;;0.73;;
65230;SDS011;51813;40.666;16.602;2023-03-15T05:20:46;3.85;;;0.80;;
65230;SDS011;51813;40.666;16.602;2023-03-15T05:23:11;2.25;;;0.60;;
65230;SDS011;51813;40.666;16.602;2023-03-15T05:25:37;4.07;;;0.80;;
65230;SDS011;51813;40.666;16.602;2023-03-15T05:28:03;3.78;;;0.70;;
65230;SDS011;51813;40.666;16.602;2023-03-15T05:30:30;2.60;;;0.63;;
65230;SDS011;51813;40.666;16.602;2023-03-15T05:32:56;2.33;;;0.75;;
65230;SDS011;51813;40.666;16.602;2023-03-15T05:35:22;2.55;;;0.70;;
65230;SDS011;51813;40.666;16.602;2023-03-15T05:37:50;2.50;;;0.88;;
65230;SDS011;51813;40.666;16.602;2023-03-15T05:40:18;3.28;;;0.85;;
65230;SDS011;51813;40.666;16.602;2023-03-15T05:42:44;3.55;;;0.93;;
65230;SDS011;51813;40.666;16.602;2023-03-15T05:45:10;2.67;;;0.73;;
65230;SDS011;51813;40.666;16.602;2023-03-15T05:47:36;3.42;;;0.70;;
65230;SDS011;51813;40.666;16.602;2023-03-15T05:50:02;4.03;;;0.80;;
65230;SDS011;51813;40.666;16.602;2023-03-15T05:52:29;3.45;;;0.80;;
65230;SDS011;51813;40.666;16.602;2023-03-15T05:54:55;1.17;;;0.50;;
65230;SDS011;51813;40.666;16.602;2023-03-15T05:57:20;3.25;;;0.98;;
65230;SDS011;51813;40.666;16.602;2023-03-15T05:59:46;3.85;;;0.80;;
65230;SDS011;51813;40.666;16.602;2023-03-15T06:02:12;2.53;;;0.88;;
65230;SDS011;51813;40.666;16.602;2023-03-15T06:04:37;3.28;;;1.35;;
65230;SDS011;51813;40.666;16.602;2023-03-15T06:07:04;1.80;;;0.68;;
65230;SDS011;51813;40.666;16.602;2023-03-15T06:09:29;2.00;;;0.60;;
65230;SDS011;51813;40.666;16.602;2023-03-15T06:11:55;2.72;;;0.90;;
65230;SDS011;51813;40.666;16.602;2023-03-15T06:14:23;2.60;;;1.00;;
65230;SDS011;51813;40.666;16.602;2023-03-15T06:16:49;3.03;;;0.95;;
65230;SDS011;51813;40.666;16.602;2023-03-15T06:19:14;1.00;;;0.55;;
65230;SDS011;51813;40.666;16.602;2023-03-15T06:21:40;1.58;;;0.70;;
65230;SDS011;51813;40.666;16.602;2023-03-15T06:24:06;1.75;;;0.60;;
65230;SDS011;51813;40.666;16.602;2023-03-15T06:26:32;3.35;;;0.90;;
65230;SDS011;51813;40.666;16.602;2023-03-15T06:28:57;1.95;;;0.70;;
65230;SDS011;51813;40.666;16.602;2023-03-15T06:31:23;2.65;;;0.82;;
65230;SDS011;51813;40.666;16.602;2023-03-15T06:33:48;1.23;;;0.60;;
65230;SDS011;51813;40.666;16.602;2023-03-15T06:36:14;1.17;;;0.60;;
65230;SDS011;51813;40.666;16.602;2023-03-15T06:38:40;2.22;;;0.70;;
65230;SDS011;51813;40.666;16.602;2023-03-15T06:41:06;2.42;;;0.70;;
65230;SDS011;51813;40.666;16.602;2023-03-15T06:43:32;2.35;;;0.60;;
65230;SDS011;51813;40.666;16.602;2023-03-15T06:45:59;3.22;;;0.68;;
65230;SDS011;51813;40.666;16.602;2023-03-15T06:48:25;2.90;;;0.82;;
65230;SDS011;51813;40.666;16.602;2023-03-15T06:50:51;3.70;;;0.95;;
65230;SDS011;51813;40.666;16.602;2023-03-15T06:53:17;1.10;;;0.70;;
65230;SDS011;51813;40.666;16.602;2023-03-15T06:55:43;1.40;;;0.50;;
65230;SDS011;51813;40.666;16.602;2023-03-15T06:58:09;3.03;;;0.60;;
65230;SDS011;51813;40.666;16.602;2023-03-15T07:00:36;2.13;;;0.60;;
65230;SDS011;51813;40.666;16.602;2023-03-15T07:03:02;1.88;;;0.57;;
65230;SDS011;51813;40.666;16.602;2023-03-15T07:05:28;1.30;;;0.55;;
65230;SDS011;51813;40.666;16.602;2023-03-15T07:07:53;2.00;;;0.80;;
65230;SDS011;51813;40.666;16.602;2023-03-15T07:10:19;1.50;;;0.60;;
65230;SDS011;51813;40.666;16.602;2023-03-15T07:12:45;1.52;;;0.63;;
65230;SDS011;51813;40.666;16.602;2023-03-15T07:15:11;1.10;;;0.52;;
65230;SDS011;51813;40.666;16.602;2023-03-15T07:17:37;1.33;;;0.60;;
65230;SDS011;51813;40.666;16.602;2023-03-15T07:20:03;1.35;;;0.70;;
65230;SDS011;51813;40.666;16.602;2023-03-15T07:22:30;0.85;;;0.50;;
65230;SDS011;51813;40.666;16.602;2023-03-15T07:24:56;2.10;;;0.73;;
65230;SDS011;51813;40.666;16.602;2023-03-15T07:27:22;2.08;;;0.80;;
65230;SDS011;51813;40.666;16.602;2023-03-15T07:29:48;1.38;;;0.70;;
65230;SDS011;51813;40.666;16.602;2023-03-15T07:32:13;1.40;;;0.70;;
65230;SDS011;51813;40.666;16.602;2023-03-15T07:34:39;1.25;;;0.63;;
65230;SDS011;51813;40.666;16.602;2023-03-15T07:37:05;1.23;;;0.63;;
65230;SDS011;51813;40.666;16.602;2023-03-15T07:39:31;1.90;;;0.80;;
65230;SDS011;51813;40.666;16.602;2023-03-15T07:41:57;2.08;;;0.90;;
65230;SDS011;51813;40.666;16.602;2023-03-15T07:44:23;1.65;;;0.80;;
65230;SDS011;51813;40.666;16.602;2023-03-15T07:46:49;1.63;;;0.70;;
65230;SDS011;51813;40.666;16.602;2023-03-15T07:49:15;2.15;;;0.70;;
65230;SDS011;51813;40.666;16.602;2023-03-15T07:51:41;2.17;;;0.73;;
65230;SDS011;51813;40.666;16.602;2023-03-15T07:54:07;1.83;;;0.60;;
65230;SDS011;51813;40.666;16.602;2023-03-15T07:56:33;1.55;;;0.80;;
65230;SDS011;51813;40.666;16.602;2023-03-15T07:58:59;2.33;;;1.10;;
65230;SDS011;51813;40.666;16.602;2023-03-15T08:01:25;2.90;;;0.95;;
65230;SDS011;51813;40.666;16.602;2023-03-15T08:03:51;2.90;;;0.93;;
65230;SDS011;51813;40.666;16.602;2023-03-15T08:06:17;1.90;;;0.70;;
65230;SDS011;51813;40.666;16.602;2023-03-15T08:08:42;2.63;;;0.90;;
65230;SDS011;51813;40.666;16.602;2023-03-15T08:11:08;1.70;;;0.73;;
65230;SDS011;51813;40.666;16.602;2023-03-15T08:13:34;1.38;;;0.65;;
65230;SDS011;51813;40.666;16.602;2023-03-15T08:16:00;2.05;;;0.73;;
65230;SDS011;51813;40.666;16.602;2023-03-15T08:18:26;1.30;;;0.50;;
65230;SDS011;51813;40.666;16.602;2023-03-15T08:20:53;1.70;;;0.70;;
65230;SDS011;51813;40.666;16.602;2023-03-15T08:23:19;1.63;;;0.63;;
65230;SDS011;51813;40.666;16.602;2023-03-15T08:25:46;1.90;;;0.70;;
65230;SDS011;51813;40.666;16.602;2023-03-15T08:28:12;1.75;;;0.65;;
65230;SDS011;51813;40.666;16.602;2023-03-15T08:30:38;2.00;;;0.80;;
65230;SDS011;51813;40.666;16.602;2023-03-15T08:33:04;2.40;;;0.70;;
65230;SDS011;51813;40.666;16.602;2023-03-15T08:35:31;2.45;;;0.75;;
65230;SDS011;51813;40.666;16.602;2023-03-15T08:37:58;1.52;;;0.70;;
65230;SDS011;51813;40.666;16.602;2023-03-15T08:40:26;1.67;;;0.70;;
65230;SDS011;51813;40.666;16.602;2023-03-15T08:42:53;2.47;;;0.50;;
65230;SDS011;51813;40.666;16.602;2023-03-15T08:45:21;2.15;;;0.68;;
65230;SDS011;51813;40.666;16.602;2023-03-15T08:47:53;2.10;;;0.90;;
65230;SDS011;51813;40.666;16.602;2023-03-15T08:52:46;1.50;;;0.60;;
65230;SDS011;51813;40.666;16.602;2023-03-15T08:55:12;1.35;;;0.60;;
65230;SDS011;51813;40.666;16.602;2023-03-15T08:57:38;1.23;;;0.50;;
65230;SDS011;51813;40.666;16.602;2023-03-15T09:00:05;1.33;;;0.50;;
65230;SDS011;51813;40.666;16.602;2023-03-15T09:02:35;1.52;;;0.70;;
65230;SDS011;51813;40.666;16.602;2023-03-15T09:05:01;1.58;;;0.55;;
65230;SDS011;51813;40.666;16.602;2023-03-15T09:07:30;1.52;;;0.60;;
65230;SDS011;51813;40.666;16.602;2023-03-15T09:09:56;1.33;;;0.70;;
65230;SDS011;51813;40.666;16.602;2023-03-15T09:12:22;1.55;;;0.68;;
65230;SDS011;51813;40.666;16.602;2023-03-15T09:14:48;1.92;;;0.70;;
65230;SDS011;51813;40.666;16.602;2023-03-15T09:17:13;2.00;;;0.80;;
65230;SDS011;51813;40.666;16.602;2023-03-15T09:19:39;1.83;;;0.85;;
65230;SDS011;51813;40.666;16.602;2023-03-15T09:22:05;1.70;;;0.60;;
65230;SDS011;51813;40.666;16.602;2023-03-15T09:24:31;1.52;;;0.70;;
65230;SDS011;51813;40.666;16.602;2023-03-15T09:26:57;2.58;;;1.20;;
65230;SDS011;51813;40.666;16.602;2023-03-15T09:29:23;2.75;;;0.80;;
65230;SDS011;51813;40.666;16.602;2023-03-15T09:31:48;1.48;;;0.65;;
65230;SDS011;51813;40.666;16.602;2023-03-15T09:34:14;1.67;;;0.70;;
65230;SDS011;51813;40.666;16.602;2023-03-15T09:36:39;2.55;;;0.88;;
65230;SDS011;51813;40.666;16.602;2023-03-15T09:39:05;2.40;;;0.80;;
65230;SDS011;51813;40.666;16.602;2023-03-15T09:41:44;1.67;;;0.80;;
65230;SDS011;51813;40.666;16.602;2023-03-15T10:00:36;1.52;;;0.80;;
65230;SDS011;51813;40.666;16.602;2023-03-15T10:03:15;1.50;;;0.80;;
65230;SDS011;51813;40.666;16.602;2023-03-15T10:06:01;3.05;;;1.02;;
65230;SDS011;51813;40.666;16.602;2023-03-15T10:08:35;2.05;;;0.82;;
65230;SDS011;51813;40.666;16.602;2023-03-15T10:16:18;2.08;;;0.63;;
65230;SDS011;51813;40.666;16.602;2023-03-15T10:19:13;1.90;;;0.80;;
65230;SDS011;51813;40.666;16.602;2023-03-15T10:24:21;1.48;;;0.80;;
65230;SDS011;51813;40.666;16.602;2023-03-15T10:26:56;2.88;;;0.88;;
65230;SDS011;51813;40.666;16.602;2023-03-15T10:29:25;1.95;;;0.88;;
65230;SDS011;51813;40.666;16.602;2023-03-15T10:31:52;4.07;;;1.08;;
65230;SDS011;51813;40.666;16.602;2023-03-15T10:34:18;2.53;;;1.10;;
65230;SDS011;51813;40.666;16.602;2023-03-15T10:36:49;2.88;;;0.93;;
65230;SDS011;51813;40.666;16.602;2023-03-15T10:39:19;3.17;;;1.10;;
65230;SDS011;51813;40.666;16.602;2023-03-15T10:41:47;2.75;;;1.00;;
65230;SDS011;51813;40.666;16.602;2023-03-15T10:44:18;3.67;;;1.38;;
65230;SDS011;51813;40.666;16.602;2023-03-15T10:49:40;3.28;;;1.17;;
65230;SDS011;51813;40.666;16.602;2023-03-15T10:55:24;3.78;;;1.27;;
65230;SDS011;51813;40.666;16.602;2023-03-15T10:57:54;2.45;;;1.40;;
65230;SDS011;51813;40.666;16.602;2023-03-15T11:05:43;3.50;;;1.33;;
65230;SDS011;51813;40.666;16.602;2023-03-15T11:08:18;4.60;;;1.20;;
65230;SDS011;51813;40.666;16.602;2023-03-15T11:10:46;3.17;;;1.63;;
65230;SDS011;51813;40.666;16.602;2023-03-15T11:15:51;2.92;;;1.25;;
65230;SDS011;51813;40.666;16.602;2023-03-15T11:19:10;3.60;;;1.13;;
65230;SDS011;51813;40.666;16.602;2023-03-15T11:21:23;4.30;;;1.10;;
65230;SDS011;51813;40.666;16.602;2023-03-15T11:23:53;4.53;;;1.27;;
65230;SDS011;51813;40.666;16.602;2023-03-15T11:26:21;3.05;;;1.27;;
65230;SDS011;51813;40.666;16.602;2023-03-15T11:28:49;3.20;;;1.10;;
65230;SDS011;51813;40.666;16.602;2023-03-15T11:31:21;2.20;;;1.08;;
65230;SDS011;51813;40.666;16.602;2023-03-15T11:36:20;2.35;;;1.00;;
65230;SDS011;51813;40.666;16.602;2023-03-15T11:38:49;2.45;;;1.10;;
65230;SDS011;51813;40.666;16.602;2023-03-15T11:49:41;3.08;;;1.05;;
65230;SDS011;51813;40.666;16.602;2023-03-15T11:52:28;3.08;;;1.10;;
65230;SDS011;51813;40.666;16.602;2023-03-15T11:54:56;1.80;;;1.00;;
65230;SDS011;51813;40.666;16.602;2023-03-15T11:57:40;2.92;;;1.13;;
65230;SDS011;51813;40.666;16.602;2023-03-15T12:00:54;3.83;;;1.20;;
65230;SDS011;51813;40.666;16.602;2023-03-15T12:03:21;4.78;;;0.98;;
65230;SDS011;51813;40.666;16.602;2023-03-15T12:05:50;2.78;;;0.70;;
65230;SDS011;51813;40.666;16.602;2023-03-15T12:08:24;1.65;;;0.75;;
65230;SDS011;51813;40.666;16.602;2023-03-15T12:13:49;2.55;;;0.80;;
65230;SDS011;51813;40.666;16.602;2023-03-15T12:16:21;1.63;;;0.70;;
65230;SDS011;51813;40.666;16.602;2023-03-15T12:18:47;1.80;;;0.80;;
65230;SDS011;51813;40.666;16.602;2023-03-15T12:21:15;1.40;;;0.60;;
65230;SDS011;51813;40.666;16.602;2023-03-15T12:24:16;5.03;;;0.90;;
65230;SDS011;51813;40.666;16.602;2023-03-15T12:26:48;1.65;;;0.80;;
65230;SDS011;51813;40.666;16.602;2023-03-15T12:29:23;1.92;;;0.60;;
65230;SDS011;51813;40.666;16.602;2023-03-15T12:31:52;2.22;;;0.80;;
65230;SDS011;51813;40.666;16.602;2023-03-15T12:37:18;2.95;;;0.93;;
65230;SDS011;51813;40.666;16.602;2023-03-15T12:52:59;3.60;;;0.77;;
65230;SDS011;51813;40.666;16.602;2023-03-15T12:55:26;2.30;;;0.70;;
65230;SDS011;51813;40.666;16.602;2023-03-15T12:57:56;4.28;;;0.73;;
65230;SDS011;51813;40.666;16.602;2023-03-15T13:00:24;1.67;;;0.60;;
65230;SDS011;51813;40.666;16.602;2023-03-15T13:02:53;3.97;;;0.88;;
65230;SDS011;51813;40.666;16.602;2023-03-15T13:05:39;2.45;;;0.70;;
65230;SDS011;51813;40.666;16.602;2023-03-15T13:08:18;2.10;;;0.50;;
65230;SDS011;51813;40.666;16.602;2023-03-15T13:22:44;2.92;;;0.60;;
65230;SDS011;51813;40.666;16.602;2023-03-15T13:25:29;1.80;;;0.60;;
65230;SDS011;51813;40.666;16.602;2023-03-15T13:28:05;2.65;;;0.80;;
65230;SDS011;51813;40.666;16.602;2023-03-15T13:30:52;2.70;;;0.88;;
65230;SDS011;51813;40.666;16.602;2023-03-15T13:35:55;1.80;;;0.70;;
65230;SDS011;51813;40.666;16.602;2023-03-15T13:40:55;3.75;;;0.95;;
65230;SDS011;51813;40.666;16.602;2023-03-15T13:43:26;3.78;;;0.80;;
65230;SDS011;51813;40.666;16.602;2023-03-15T13:45:56;3.53;;;0.77;;
65230;SDS011;51813;40.666;16.602;2023-03-15T13:48:24;2.28;;;0.73;;
65230;SDS011;51813;40.666;16.602;2023-03-15T13:50:51;3.88;;;0.82;;
65230;SDS011;51813;40.666;16.602;2023-03-15T13:53:22;3.85;;;0.90;;
65230;SDS011;51813;40.666;16.602;2023-03-15T13:55:52;3.13;;;0.80;;
65230;SDS011;51813;40.666;16.602;2023-03-15T13:58:19;4.25;;;0.90;;
65230;SDS011;51813;40.666;16.602;2023-03-15T14:00:47;2.05;;;0.80;;
65230;SDS011;51813;40.666;16.602;2023-03-15T14:03:19;2.78;;;0.82;;
65230;SDS011;51813;40.666;16.602;2023-03-15T14:05:47;3.10;;;0.95;;
65230;SDS011;51813;40.666;16.602;2023-03-15T14:08:26;3.92;;;0.90;;
65230;SDS011;51813;40.666;16.602;2023-03-15T14:13:28;2.75;;;0.80;;
65230;SDS011;51813;40.666;16.602;2023-03-15T14:15:59;2.25;;;0.52;;
65230;SDS011;51813;40.666;16.602;2023-03-15T14:18:32;4.07;;;0.90;;
65230;SDS011;51813;40.666;16.602;2023-03-15T14:21:10;3.03;;;0.85;;
65230;SDS011;51813;40.666;16.602;2023-03-15T14:23:41;4.38;;;0.90;;
65230;SDS011;51813;40.666;16.602;2023-03-15T14:26:10;1.65;;;1.02;;
65230;SDS011;51813;40.666;16.602;2023-03-15T14:28:56;4.18;;;0.90;;
65230;SDS011;51813;40.666;16.602;2023-03-15T14:31:27;4.05;;;0.85;;
65230;SDS011;51813;40.666;16.602;2023-03-15T14:33:57;2.13;;;0.80;;
65230;SDS011;51813;40.666;16.602;2023-03-15T14:36:41;1.92;;;0.60;;
65230;SDS011;51813;40.666;16.602;2023-03-15T14:39:18;3.15;;;0.80;;
65230;SDS011;51813;40.666;16.602;2023-03-15T14:41:53;2.60;;;0.90;;
65230;SDS011;51813;40.666;16.602;2023-03-15T14:44:19;2.25;;;0.68;;
65230;SDS011;51813;40.666;16.602;2023-03-15T14:46:45;3.47;;;0.80;;
65230;SDS011;51813;40.666;16.602;2023-03-15T14:49:12;6.13;;;0.88;;
65230;SDS011;51813;40.666;16.602;2023-03-15T14:51:45;2.95;;;0.80;;
65230;SDS011;51813;40.666;16.602;2023-03-15T14:54:12;3.78;;;0.70;;
65230;SDS011;51813;40.666;16.602;2023-03-15T14:56:38;2.20;;;0.73;;
65230;SDS011;51813;40.666;16.602;2023-03-15T14:59:10;2.65;;;0.73;;
65230;SDS011;51813;40.666;16.602;2023-03-15T15:01:37;1.50;;;0.63;;
65230;SDS011;51813;40.666;16.602;2023-03-15T15:04:04;4.00;;;0.90;;
65230;SDS011;51813;40.666;16.602;2023-03-15T15:06:30;4.88;;;1.10;;
65230;SDS011;51813;40.666;16.602;2023-03-15T15:08:57;2.25;;;0.70;;
65230;SDS011;51813;40.666;16.602;2023-03-15T15:11:25;1.55;;;0.55;;
65230;SDS011;51813;40.666;16.602;2023-03-15T15:13:51;2.13;;;0.70;;
65230;SDS011;51813;40.666;16.602;2023-03-15T15:16:17;2.72;;;0.85;;
65230;SDS011;51813;40.666;16.602;2023-03-15T15:18:43;1.10;;;0.50;;
65230;SDS011;51813;40.666;16.602;2023-03-15T15:21:19;3.28;;;0.75;;
65230;SDS011;51813;40.666;16.602;2023-03-15T15:23:51;2.08;;;0.70;;
65230;SDS011;51813;40.666;16.602;2023-03-15T15:26:20;2.40;;;0.82;;
65230;SDS011;51813;40.666;16.602;2023-03-15T15:28:47;5.15;;;0.90;;
65230;SDS011;51813;40.666;16.602;2023-03-15T15:31:18;1.80;;;0.63;;
65230;SDS011;51813;40.666;16.602;2023-03-15T15:33:47;2.45;;;0.70;;
65230;SDS011;51813;40.666;16.602;2023-03-15T15:38:49;1.60;;;0.60;;
65230;SDS011;51813;40.666;16.602;2023-03-15T15:41:22;1.85;;;0.60;;
65230;SDS011;51813;40.666;16.602;2023-03-15T15:43:50;3.88;;;0.70;;
65230;SDS011;51813;40.666;16.602;2023-03-15T15:46:17;3.80;;;0.60;;
65230;SDS011;51813;40.666;16.602;2023-03-15T15:48:43;3.25;;;1.50;;
65230;SDS011;51813;40.666;16.602;2023-03-15T15:51:28;1.27;;;0.60;;
65230;SDS011;51813;40.666;16.602;2023-03-15T15:54:16;1.98;;;0.50;;
65230;SDS011;51813;40.666;16.602;2023-03-15T15:56:47;1.92;;;0.60;;
65230;SDS011;51813;40.666;16.602;2023-03-15T15:59:15;3.58;;;0.82;;
65230;SDS011;51813;40.666;16.602;2023-03-15T16:01:41;3.10;;;0.80;;
65230;SDS011;51813;40.666;16.602;2023-03-15T16:04:08;2.15;;;0.60;;
65230;SDS011;51813;40.666;16.602;2023-03-15T16:06:34;4.15;;;0.60;;
65230;SDS011;51813;40.666;16.602;2023-03-15T16:09:00;1.85;;;0.60;;
65230;SDS011;51813;40.666;16.602;2023-03-15T16:11:29;1.75;;;0.50;;
65230;SDS011;51813;40.666;16.602;2023-03-15T16:13:55;1.77;;;0.60;;
65230;SDS011;51813;40.666;16.602;2023-03-15T16:16:21;1.60;;;0.55;;
65230;SDS011;51813;40.666;16.602;2023-03-15T16:18:47;1.92;;;0.50;;